sensor_id;sensor_type;location;lat;lon;timestamp;P1;durP1;ratioP1;P2;durP2;ratioP2
11422;SDS011;5768;51.476;7.210;2022-12-24T00:03:40;10.43;;;2.43;;
11422;SDS011;5768;51.476;7.210;2022-12-24T00:08:45;13.13;;;3.57;;
11422;SDS011;5768;51.476;7.210;2022-12-24T00:13:47;9.93;;;3.23;;
11422;SDS011;5768;51.476;7.210;2022-12-24T00:18:50;10.80;;;3.30;;
11422;SDS011;5768;51.476;7.210;2022-12-24T00:23:54;10.93;;;3.23;;
11422;SDS011;5768;51.476;7.210;2022-12-24T00:28:56;12.10;;;4.33;;
11422;SDS011;5768;51.476;7.210;2022-12-24T00:34:00;9.60;;;2.73;;
11422;SDS011;5768;51.476;7.210;2022-12-24T00:39:05;19.53;;;3.83;;
11422;SDS011;5768;51.476;7.210;2022-12-24T00:44:07;14.33;;;4.07;;
11422;SDS011;5768;51.476;7.210;2022-12-24T00:49:11;9.57;;;3.00;;
11422;SDS011;5768;51.476;7.210;2022-12-24T00:54:35;11.27;;;3.53;;
11422;SDS011;5768;51.476;7.210;2022-12-24T00:59:39;8.13;;;2.80;;
11422;SDS011;5768;51.476;7.210;2022-12-24T01:04:42;8.13;;;2.17;;
11422;SDS011;5768;51.476;7.210;2022-12-24T01:10:04;16.63;;;4.07;;
11422;SDS011;5768;51.476;7.210;2022-12-24T01:15:09;7.63;;;2.80;;
11422;SDS011;5768;51.476;7.210;2022-12-24T01:20:14;12.53;;;2.63;;
11422;SDS011;5768;51.476;7.210;2022-12-24T01:25:19;11.40;;;3.33;;
11422;SDS011;5768;51.476;7.210;2022-12-24T01:30:21;14.37;;;3.73;;
11422;SDS011;5768;51.476;7.210;2022-12-24T01:35:24;10.97;;;3.17;;
11422;SDS011;5768;51.476;7.210;2022-12-24T01:40:27;11.57;;;3.38;;
11422;SDS011;5768;51.476;7.210;2022-12-24T01:45:47;14.47;;;3.13;;
11422;SDS011;5768;51.476;7.210;2022-12-24T01:50:54;16.97;;;4.37;;
11422;SDS011;5768;51.476;7.210;2022-12-24T01:56:03;9.97;;;3.07;;
11422;SDS011;5768;51.476;7.210;2022-12-24T02:01:09;13.27;;;3.03;;
11422;SDS011;5768;51.476;7.210;2022-12-24T02:06:11;11.10;;;3.33;;
11422;SDS011;5768;51.476;7.210;2022-12-24T02:11:19;17.97;;;4.20;;
11422;SDS011;5768;51.476;7.210;2022-12-24T02:16:26;14.37;;;3.93;;
11422;SDS011;5768;51.476;7.210;2022-12-24T02:21:44;9.63;;;2.80;;
11422;SDS011;5768;51.476;7.210;2022-12-24T02:27:02;10.67;;;3.33;;
11422;SDS011;5768;51.476;7.210;2022-12-24T02:32:19;11.43;;;3.30;;
11422;SDS011;5768;51.476;7.210;2022-12-24T02:37:27;14.80;;;3.80;;
11422;SDS011;5768;51.476;7.210;2022-12-24T02:42:36;13.73;;;3.73;;
11422;SDS011;5768;51.476;7.210;2022-12-24T02:47:43;13.27;;;3.77;;
11422;SDS011;5768;51.476;7.210;2022-12-24T02:52:47;17.17;;;3.77;;
11422;SDS011;5768;51.476;7.210;2022-12-24T02:57:57;17.30;;;3.70;;
11422;SDS011;5768;51.476;7.210;2022-12-24T03:03:24;21.83;;;4.20;;
11422;SDS011;5768;51.476;7.210;2022-12-24T03:08:41;15.53;;;4.10;;
11422;SDS011;5768;51.476;7.210;2022-12-24T03:13:52;18.53;;;4.10;;
11422;SDS011;5768;51.476;7.210;2022-12-24T03:19:00;18.53;;;4.03;;
11422;SDS011;5768;51.476;7.210;2022-12-24T03:24:05;18.57;;;4.07;;
11422;SDS011;5768;51.476;7.210;2022-12-24T03:29:08;20.23;;;4.17;;
11422;SDS011;5768;51.476;7.210;2022-12-24T03:34:12;17.47;;;4.17;;
11422;SDS011;5768;51.476;7.210;2022-12-24T03:39:16;13.77;;;3.43;;
11422;SDS011;5768;51.476;7.210;2022-12-24T03:44:18;16.33;;;4.40;;
11422;SDS011;5768;51.476;7.210;2022-12-24T03:49:22;16.83;;;4.27;;
11422;SDS011;5768;51.476;7.210;2022-12-24T03:54:24;9.73;;;2.53;;
11422;SDS011;5768;51.476;7.210;2022-12-24T03:59:26;13.80;;;3.73;;
11422;SDS011;5768;51.476;7.210;2022-12-24T04:04:30;18.90;;;4.13;;
11422;SDS011;5768;51.476;7.210;2022-12-24T04:09:32;14.20;;;3.03;;
11422;SDS011;5768;51.476;7.210;2022-12-24T04:14:35;12.33;;;2.83;;
11422;SDS011;5768;51.476;7.210;2022-12-24T04:19:41;12.83;;;3.93;;
11422;SDS011;5768;51.476;7.210;2022-12-24T04:24:44;8.07;;;2.40;;
11422;SDS011;5768;51.476;7.210;2022-12-24T04:29:46;12.77;;;3.37;;
11422;SDS011;5768;51.476;7.210;2022-12-24T04:34:50;13.00;;;2.97;;
11422;SDS011;5768;51.476;7.210;2022-12-24T04:39:52;13.93;;;3.10;;
11422;SDS011;5768;51.476;7.210;2022-12-24T04:44:54;11.27;;;2.87;;
11422;SDS011;5768;51.476;7.210;2022-12-24T04:49:58;10.60;;;3.60;;
11422;SDS011;5768;51.476;7.210;2022-12-24T04:55:00;12.27;;;3.20;;
11422;SDS011;5768;51.476;7.210;2022-12-24T05:00:03;6.80;;;2.67;;
11422;SDS011;5768;51.476;7.210;2022-12-24T05:05:09;12.50;;;3.20;;
11422;SDS011;5768;51.476;7.210;2022-12-24T05:10:12;12.37;;;3.83;;
11422;SDS011;5768;51.476;7.210;2022-12-24T05:15:14;12.80;;;3.53;;
11422;SDS011;5768;51.476;7.210;2022-12-24T05:20:18;4.57;;;2.33;;
11422;SDS011;5768;51.476;7.210;2022-12-24T05:25:20;10.03;;;3.03;;
11422;SDS011;5768;51.476;7.210;2022-12-24T05:30:53;9.27;;;3.10;;
11422;SDS011;5768;51.476;7.210;2022-12-24T05:35:57;8.67;;;2.80;;
11422;SDS011;5768;51.476;7.210;2022-12-24T05:40:59;8.13;;;2.63;;
11422;SDS011;5768;51.476;7.210;2022-12-24T05:46:02;8.80;;;2.90;;
11422;SDS011;5768;51.476;7.210;2022-12-24T05:51:10;11.83;;;3.37;;
11422;SDS011;5768;51.476;7.210;2022-12-24T05:56:15;10.93;;;3.33;;
11422;SDS011;5768;51.476;7.210;2022-12-24T06:01:20;6.40;;;2.10;;
11422;SDS011;5768;51.476;7.210;2022-12-24T06:06:26;12.63;;;3.27;;
11422;SDS011;5768;51.476;7.210;2022-12-24T06:11:29;12.10;;;3.37;;
11422;SDS011;5768;51.476;7.210;2022-12-24T06:16:31;6.80;;;2.70;;
11422;SDS011;5768;51.476;7.210;2022-12-24T06:21:34;12.70;;;3.70;;
11422;SDS011;5768;51.476;7.210;2022-12-24T06:26:37;10.00;;;3.23;;
11422;SDS011;5768;51.476;7.210;2022-12-24T06:31:39;11.33;;;2.77;;
11422;SDS011;5768;51.476;7.210;2022-12-24T06:36:42;7.83;;;2.77;;
11422;SDS011;5768;51.476;7.210;2022-12-24T06:41:45;11.83;;;3.17;;
11422;SDS011;5768;51.476;7.210;2022-12-24T06:46:46;5.27;;;2.13;;
11422;SDS011;5768;51.476;7.210;2022-12-24T06:51:50;10.70;;;3.27;;
11422;SDS011;5768;51.476;7.210;2022-12-24T06:56:52;11.80;;;3.10;;
11422;SDS011;5768;51.476;7.210;2022-12-24T07:01:55;8.83;;;2.90;;
11422;SDS011;5768;51.476;7.210;2022-12-24T07:06:58;4.20;;;1.70;;
11422;SDS011;5768;51.476;7.210;2022-12-24T07:12:00;13.67;;;3.23;;
11422;SDS011;5768;51.476;7.210;2022-12-24T07:17:02;11.43;;;3.33;;
11422;SDS011;5768;51.476;7.210;2022-12-24T07:22:06;7.67;;;2.70;;
11422;SDS011;5768;51.476;7.210;2022-12-24T07:27:08;13.27;;;3.57;;
11422;SDS011;5768;51.476;7.210;2022-12-24T07:32:10;16.70;;;5.03;;
11422;SDS011;5768;51.476;7.210;2022-12-24T07:37:14;13.47;;;3.27;;
11422;SDS011;5768;51.476;7.210;2022-12-24T07:42:16;11.57;;;4.23;;
11422;SDS011;5768;51.476;7.210;2022-12-24T07:47:18;9.40;;;3.20;;
11422;SDS011;5768;51.476;7.210;2022-12-24T07:52:21;12.97;;;4.00;;
11422;SDS011;5768;51.476;7.210;2022-12-24T07:57:23;6.90;;;2.53;;
11422;SDS011;5768;51.476;7.210;2022-12-24T08:02:26;3.97;;;2.10;;
11422;SDS011;5768;51.476;7.210;2022-12-24T08:07:32;16.30;;;3.97;;
11422;SDS011;5768;51.476;7.210;2022-12-24T08:12:34;12.10;;;2.90;;
11422;SDS011;5768;51.476;7.210;2022-12-24T08:17:36;9.93;;;2.50;;
11422;SDS011;5768;51.476;7.210;2022-12-24T08:22:40;12.80;;;3.33;;
11422;SDS011;5768;51.476;7.210;2022-12-24T08:27:42;14.60;;;3.53;;
11422;SDS011;5768;51.476;7.210;2022-12-24T08:32:44;4.37;;;1.93;;
11422;SDS011;5768;51.476;7.210;2022-12-24T08:37:48;13.83;;;3.57;;
11422;SDS011;5768;51.476;7.210;2022-12-24T08:42:50;9.03;;;3.13;;
11422;SDS011;5768;51.476;7.210;2022-12-24T08:47:52;13.17;;;3.27;;
11422;SDS011;5768;51.476;7.210;2022-12-24T08:52:56;10.70;;;2.90;;
11422;SDS011;5768;51.476;7.210;2022-12-24T08:57:59;15.07;;;3.30;;
11422;SDS011;5768;51.476;7.210;2022-12-24T09:03:01;12.03;;;3.03;;
11422;SDS011;5768;51.476;7.210;2022-12-24T09:08:05;12.50;;;4.13;;
11422;SDS011;5768;51.476;7.210;2022-12-24T09:13:06;13.40;;;2.73;;
11422;SDS011;5768;51.476;7.210;2022-12-24T09:18:08;13.73;;;3.30;;
11422;SDS011;5768;51.476;7.210;2022-12-24T09:23:12;16.67;;;4.20;;
11422;SDS011;5768;51.476;7.210;2022-12-24T09:28:14;20.37;;;3.90;;
11422;SDS011;5768;51.476;7.210;2022-12-24T09:33:16;17.33;;;4.07;;
11422;SDS011;5768;51.476;7.210;2022-12-24T09:38:20;12.70;;;3.50;;
11422;SDS011;5768;51.476;7.210;2022-12-24T09:43:25;17.73;;;4.27;;
11422;SDS011;5768;51.476;7.210;2022-12-24T09:48:31;11.20;;;3.57;;
11422;SDS011;5768;51.476;7.210;2022-12-24T09:53:41;15.87;;;3.27;;
11422;SDS011;5768;51.476;7.210;2022-12-24T09:58:52;14.37;;;3.90;;
11422;SDS011;5768;51.476;7.210;2022-12-24T10:04:01;8.90;;;2.88;;
11422;SDS011;5768;51.476;7.210;2022-12-24T10:09:11;18.87;;;4.40;;
11422;SDS011;5768;51.476;7.210;2022-12-24T10:14:31;8.50;;;2.80;;
11422;SDS011;5768;51.476;7.210;2022-12-24T10:19:56;13.00;;;3.30;;
11422;SDS011;5768;51.476;7.210;2022-12-24T10:25:24;14.20;;;4.07;;
11422;SDS011;5768;51.476;7.210;2022-12-24T10:30:32;12.67;;;3.50;;
11422;SDS011;5768;51.476;7.210;2022-12-24T10:35:35;11.77;;;3.83;;
11422;SDS011;5768;51.476;7.210;2022-12-24T10:40:48;9.43;;;3.33;;
11422;SDS011;5768;51.476;7.210;2022-12-24T10:45:55;12.90;;;3.20;;
11422;SDS011;5768;51.476;7.210;2022-12-24T10:51:02;9.93;;;3.10;;
11422;SDS011;5768;51.476;7.210;2022-12-24T10:56:09;17.83;;;4.63;;
11422;SDS011;5768;51.476;7.210;2022-12-24T11:01:14;12.47;;;3.63;;
11422;SDS011;5768;51.476;7.210;2022-12-24T11:06:16;17.30;;;4.27;;
11422;SDS011;5768;51.476;7.210;2022-12-24T11:11:21;12.23;;;3.47;;
11422;SDS011;5768;51.476;7.210;2022-12-24T11:16:25;16.13;;;4.68;;
11422;SDS011;5768;51.476;7.210;2022-12-24T11:21:31;20.63;;;5.33;;
11422;SDS011;5768;51.476;7.210;2022-12-24T11:26:38;14.43;;;4.57;;
11422;SDS011;5768;51.476;7.210;2022-12-24T11:31:42;11.43;;;3.80;;
11422;SDS011;5768;51.476;7.210;2022-12-24T11:36:46;10.23;;;3.17;;
11422;SDS011;5768;51.476;7.210;2022-12-24T11:41:50;20.20;;;4.97;;
11422;SDS011;5768;51.476;7.210;2022-12-24T11:46:54;16.08;;;5.05;;
11422;SDS011;5768;51.476;7.210;2022-12-24T11:51:59;14.43;;;4.93;;
11422;SDS011;5768;51.476;7.210;2022-12-24T11:57:22;12.50;;;3.50;;
11422;SDS011;5768;51.476;7.210;2022-12-24T12:02:34;15.90;;;4.35;;
11422;SDS011;5768;51.476;7.210;2022-12-24T12:07:42;16.67;;;4.80;;
11422;SDS011;5768;51.476;7.210;2022-12-24T12:12:55;15.25;;;4.60;;
11422;SDS011;5768;51.476;7.210;2022-12-24T12:18:03;34.90;;;5.78;;
11422;SDS011;5768;51.476;7.210;2022-12-24T12:23:13;19.63;;;4.93;;
11422;SDS011;5768;51.476;7.210;2022-12-24T12:28:24;17.90;;;4.68;;
11422;SDS011;5768;51.476;7.210;2022-12-24T12:33:35;13.27;;;3.77;;
11422;SDS011;5768;51.476;7.210;2022-12-24T12:38:41;16.95;;;4.20;;
11422;SDS011;5768;51.476;7.210;2022-12-24T12:49:24;6.25;;;2.28;;
11422;SDS011;5768;51.476;7.210;2022-12-24T12:54:43;14.10;;;3.77;;
11422;SDS011;5768;51.476;7.210;2022-12-24T13:00:09;15.65;;;4.45;;
11422;SDS011;5768;51.476;7.210;2022-12-24T13:05:21;11.95;;;3.90;;
11422;SDS011;5768;51.476;7.210;2022-12-24T13:10:57;14.17;;;3.87;;
11422;SDS011;5768;51.476;7.210;2022-12-24T13:16:21;8.25;;;2.50;;
11422;SDS011;5768;51.476;7.210;2022-12-24T13:21:54;11.23;;;3.20;;
11422;SDS011;5768;51.476;7.210;2022-12-24T13:27:02;12.90;;;3.97;;
11422;SDS011;5768;51.476;7.210;2022-12-24T13:32:37;14.27;;;4.30;;
11422;SDS011;5768;51.476;7.210;2022-12-24T13:37:51;12.88;;;3.67;;
11422;SDS011;5768;51.476;7.210;2022-12-24T13:43:06;12.40;;;3.15;;
11422;SDS011;5768;51.476;7.210;2022-12-24T13:48:24;13.18;;;3.85;;
11422;SDS011;5768;51.476;7.210;2022-12-24T13:53:35;12.63;;;4.15;;
11422;SDS011;5768;51.476;7.210;2022-12-24T13:58:44;13.38;;;4.07;;
11422;SDS011;5768;51.476;7.210;2022-12-24T14:03:52;15.38;;;4.10;;
11422;SDS011;5768;51.476;7.210;2022-12-24T14:09:04;10.95;;;3.65;;
11422;SDS011;5768;51.476;7.210;2022-12-24T14:14:25;13.27;;;4.05;;
11422;SDS011;5768;51.476;7.210;2022-12-24T14:19:31;12.65;;;4.13;;
11422;SDS011;5768;51.476;7.210;2022-12-24T14:24:43;15.18;;;4.28;;
11422;SDS011;5768;51.476;7.210;2022-12-24T14:29:56;13.93;;;4.35;;
11422;SDS011;5768;51.476;7.210;2022-12-24T14:41:43;8.32;;;2.80;;
11422;SDS011;5768;51.476;7.210;2022-12-24T14:46:53;11.43;;;3.30;;
11422;SDS011;5768;51.476;7.210;2022-12-24T14:52:02;14.30;;;3.58;;
11422;SDS011;5768;51.476;7.210;2022-12-24T14:57:18;13.60;;;3.70;;
11422;SDS011;5768;51.476;7.210;2022-12-24T15:02:27;14.60;;;4.05;;
11422;SDS011;5768;51.476;7.210;2022-12-24T15:07:39;11.68;;;3.50;;
11422;SDS011;5768;51.476;7.210;2022-12-24T15:12:47;11.48;;;3.55;;
11422;SDS011;5768;51.476;7.210;2022-12-24T15:17:51;14.23;;;4.05;;
11422;SDS011;5768;51.476;7.210;2022-12-24T15:22:56;11.13;;;3.47;;
11422;SDS011;5768;51.476;7.210;2022-12-24T15:28:00;11.60;;;3.70;;
11422;SDS011;5768;51.476;7.210;2022-12-24T15:33:03;16.10;;;3.78;;
11422;SDS011;5768;51.476;7.210;2022-12-24T15:38:09;12.23;;;3.70;;
11422;SDS011;5768;51.476;7.210;2022-12-24T15:43:38;12.53;;;3.97;;
11422;SDS011;5768;51.476;7.210;2022-12-24T15:48:42;11.40;;;4.03;;
11422;SDS011;5768;51.476;7.210;2022-12-24T15:53:46;11.13;;;3.90;;
11422;SDS011;5768;51.476;7.210;2022-12-24T15:58:50;14.50;;;4.10;;
11422;SDS011;5768;51.476;7.210;2022-12-24T16:04:11;15.93;;;4.10;;
11422;SDS011;5768;51.476;7.210;2022-12-24T16:14:49;9.07;;;3.43;;
11422;SDS011;5768;51.476;7.210;2022-12-24T16:19:57;16.70;;;4.03;;
11422;SDS011;5768;51.476;7.210;2022-12-24T16:25:14;13.20;;;4.40;;
11422;SDS011;5768;51.476;7.210;2022-12-24T16:30:26;16.53;;;4.63;;
11422;SDS011;5768;51.476;7.210;2022-12-24T16:35:29;15.80;;;4.60;;
11422;SDS011;5768;51.476;7.210;2022-12-24T16:40:35;13.13;;;4.77;;
11422;SDS011;5768;51.476;7.210;2022-12-24T16:45:39;19.20;;;4.90;;
11422;SDS011;5768;51.476;7.210;2022-12-24T16:50:41;16.30;;;5.77;;
11422;SDS011;5768;51.476;7.210;2022-12-24T16:55:43;18.80;;;5.77;;
11422;SDS011;5768;51.476;7.210;2022-12-24T17:00:48;20.43;;;5.70;;
11422;SDS011;5768;51.476;7.210;2022-12-24T17:05:50;14.47;;;5.50;;
11422;SDS011;5768;51.476;7.210;2022-12-24T17:10:52;19.50;;;6.60;;
11422;SDS011;5768;51.476;7.210;2022-12-24T17:15:55;18.73;;;6.30;;
11422;SDS011;5768;51.476;7.210;2022-12-24T17:20:57;21.83;;;6.10;;
11422;SDS011;5768;51.476;7.210;2022-12-24T17:26:02;18.33;;;6.80;;
11422;SDS011;5768;51.476;7.210;2022-12-24T17:31:07;22.00;;;6.30;;
11422;SDS011;5768;51.476;7.210;2022-12-24T17:36:10;20.63;;;6.50;;
11422;SDS011;5768;51.476;7.210;2022-12-24T17:41:13;17.77;;;6.00;;
11422;SDS011;5768;51.476;7.210;2022-12-24T17:46:19;16.07;;;5.83;;
11422;SDS011;5768;51.476;7.210;2022-12-24T17:51:23;19.47;;;6.17;;
11422;SDS011;5768;51.476;7.210;2022-12-24T17:56:25;19.10;;;6.40;;
11422;SDS011;5768;51.476;7.210;2022-12-24T18:01:29;20.63;;;5.67;;
11422;SDS011;5768;51.476;7.210;2022-12-24T18:06:32;22.57;;;5.87;;
11422;SDS011;5768;51.476;7.210;2022-12-24T18:11:35;21.27;;;6.30;;
11422;SDS011;5768;51.476;7.210;2022-12-24T18:16:39;26.90;;;10.27;;
11422;SDS011;5768;51.476;7.210;2022-12-24T18:21:42;19.77;;;6.47;;
11422;SDS011;5768;51.476;7.210;2022-12-24T18:26:45;22.47;;;6.47;;
11422;SDS011;5768;51.476;7.210;2022-12-24T18:31:49;21.10;;;6.10;;
11422;SDS011;5768;51.476;7.210;2022-12-24T18:36:51;23.17;;;6.50;;
11422;SDS011;5768;51.476;7.210;2022-12-24T18:41:53;19.87;;;6.87;;
11422;SDS011;5768;51.476;7.210;2022-12-24T18:46:57;18.27;;;6.30;;
11422;SDS011;5768;51.476;7.210;2022-12-24T18:52:01;24.63;;;6.23;;
11422;SDS011;5768;51.476;7.210;2022-12-24T18:57:03;23.07;;;6.53;;
11422;SDS011;5768;51.476;7.210;2022-12-24T19:02:08;23.97;;;7.07;;
11422;SDS011;5768;51.476;7.210;2022-12-24T19:07:22;26.70;;;6.90;;
11422;SDS011;5768;51.476;7.210;2022-12-24T19:12:24;23.20;;;6.93;;
11422;SDS011;5768;51.476;7.210;2022-12-24T19:17:27;22.97;;;7.03;;
11422;SDS011;5768;51.476;7.210;2022-12-24T19:22:29;23.07;;;6.43;;
11422;SDS011;5768;51.476;7.210;2022-12-24T19:27:31;24.37;;;6.60;;
11422;SDS011;5768;51.476;7.210;2022-12-24T19:32:34;31.57;;;6.47;;
11422;SDS011;5768;51.476;7.210;2022-12-24T19:37:37;21.40;;;6.20;;
11422;SDS011;5768;51.476;7.210;2022-12-24T19:42:39;19.77;;;6.37;;
11422;SDS011;5768;51.476;7.210;2022-12-24T19:47:43;26.03;;;7.33;;
11422;SDS011;5768;51.476;7.210;2022-12-24T19:52:46;23.37;;;7.80;;
11422;SDS011;5768;51.476;7.210;2022-12-24T19:57:50;23.63;;;7.30;;
11422;SDS011;5768;51.476;7.210;2022-12-24T20:02:53;23.67;;;7.37;;
11422;SDS011;5768;51.476;7.210;2022-12-24T20:07:55;31.40;;;11.63;;
11422;SDS011;5768;51.476;7.210;2022-12-24T20:12:58;20.57;;;7.13;;
11422;SDS011;5768;51.476;7.210;2022-12-24T20:18:01;28.50;;;7.13;;
11422;SDS011;5768;51.476;7.210;2022-12-24T20:23:04;32.27;;;8.60;;
11422;SDS011;5768;51.476;7.210;2022-12-24T20:28:07;27.53;;;7.23;;
11422;SDS011;5768;51.476;7.210;2022-12-24T20:33:10;25.47;;;7.07;;
11422;SDS011;5768;51.476;7.210;2022-12-24T20:38:12;26.77;;;7.00;;
11422;SDS011;5768;51.476;7.210;2022-12-24T20:43:15;24.27;;;7.63;;
11422;SDS011;5768;51.476;7.210;2022-12-24T20:48:18;28.77;;;7.77;;
11422;SDS011;5768;51.476;7.210;2022-12-24T20:53:20;27.37;;;8.77;;
11422;SDS011;5768;51.476;7.210;2022-12-24T20:58:22;35.20;;;12.07;;
11422;SDS011;5768;51.476;7.210;2022-12-24T21:03:26;24.10;;;8.23;;
11422;SDS011;5768;51.476;7.210;2022-12-24T21:08:28;25.80;;;8.27;;
11422;SDS011;5768;51.476;7.210;2022-12-24T21:13:30;24.60;;;7.90;;
11422;SDS011;5768;51.476;7.210;2022-12-24T21:18:33;26.37;;;8.87;;
11422;SDS011;5768;51.476;7.210;2022-12-24T21:23:35;25.17;;;8.90;;
11422;SDS011;5768;51.476;7.210;2022-12-24T21:28:37;31.50;;;9.47;;
11422;SDS011;5768;51.476;7.210;2022-12-24T21:33:41;30.33;;;9.00;;
11422;SDS011;5768;51.476;7.210;2022-12-24T21:38:43;26.83;;;7.90;;
11422;SDS011;5768;51.476;7.210;2022-12-24T21:43:45;28.07;;;7.60;;
11422;SDS011;5768;51.476;7.210;2022-12-24T21:48:49;22.67;;;7.43;;
11422;SDS011;5768;51.476;7.210;2022-12-24T21:54:10;23.47;;;7.30;;
11422;SDS011;5768;51.476;7.210;2022-12-24T21:59:26;21.83;;;7.17;;
11422;SDS011;5768;51.476;7.210;2022-12-24T22:04:30;20.10;;;7.07;;
11422;SDS011;5768;51.476;7.210;2022-12-24T22:09:33;21.67;;;6.93;;
11422;SDS011;5768;51.476;7.210;2022-12-24T22:14:54;23.90;;;7.50;;
11422;SDS011;5768;51.476;7.210;2022-12-24T22:19:58;18.43;;;6.40;;
11422;SDS011;5768;51.476;7.210;2022-12-24T22:25:00;23.87;;;10.90;;
11422;SDS011;5768;51.476;7.210;2022-12-24T22:30:02;17.60;;;6.77;;
11422;SDS011;5768;51.476;7.210;2022-12-24T22:35:08;17.73;;;6.33;;
11422;SDS011;5768;51.476;7.210;2022-12-24T22:40:10;19.80;;;6.37;;
11422;SDS011;5768;51.476;7.210;2022-12-24T22:45:13;15.80;;;5.77;;
11422;SDS011;5768;51.476;7.210;2022-12-24T22:50:16;16.33;;;6.07;;
11422;SDS011;5768;51.476;7.210;2022-12-24T22:55:18;15.90;;;5.37;;
11422;SDS011;5768;51.476;7.210;2022-12-24T23:00:34;17.57;;;5.53;;
11422;SDS011;5768;51.476;7.210;2022-12-24T23:05:42;23.07;;;6.03;;
11422;SDS011;5768;51.476;7.210;2022-12-24T23:10:44;17.53;;;5.67;;
11422;SDS011;5768;51.476;7.210;2022-12-24T23:15:46;15.73;;;5.30;;
11422;SDS011;5768;51.476;7.210;2022-12-24T23:20:50;15.93;;;5.50;;
11422;SDS011;5768;51.476;7.210;2022-12-24T23:25:59;17.50;;;5.40;;
11422;SDS011;5768;51.476;7.210;2022-12-24T23:31:03;21.10;;;5.43;;
11422;SDS011;5768;51.476;7.210;2022-12-24T23:36:08;13.20;;;5.17;;
11422;SDS011;5768;51.476;7.210;2022-12-24T23:41:10;19.60;;;5.63;;
11422;SDS011;5768;51.476;7.210;2022-12-24T23:46:12;16.47;;;5.53;;
11422;SDS011;5768;51.476;7.210;2022-12-24T23:51:18;14.73;;;5.47;;
11422;SDS011;5768;51.476;7.210;2022-12-24T23:56:23;17.37;;;5.10;;
